LXJ310 KRAP-KOMA
Flight info
| Callsign | LXJ310 |
|---|---|
| Flight time | N/A |
| Altitude | 45000 |
| Route | ONL HOWRY3 |
| Aircraft | E55P/M-SBDFGHJ2RWY/LB2 |
Departure
| Time | 2026-04-30 00:43 |
|---|---|
| Airport | Rapid City Regional Airport (KRAP) |
Arrival
| Time | N/A |
|---|---|
| Airport | Eppley Airfield (KOMA) |
| Time | Latitude | Longitude | Altitude | Speed | Heading |
|---|---|---|---|---|---|
| 2026-04-30 00:31 | 44.04469 | -103.06115 | 3176 ft | 0 kts | 243° |
| 2026-04-30 00:38 | 44.04467 | -103.06121 | 3176 ft | 4 kts | 243° |
| 2026-04-30 00:38 | 44.04442 | -103.06050 | 3178 ft | 9 kts | 69° |
| 2026-04-30 00:39 | 44.04436 | -103.05995 | 3177 ft | 11 kts | 139° |
| 2026-04-30 00:39 | 44.04349 | -103.05928 | 3173 ft | 18 kts | 151° |
| 2026-04-30 00:39 | 44.04171 | -103.05796 | 3169 ft | 25 kts | 152° |
| 2026-04-30 00:39 | 44.04014 | -103.05679 | 3165 ft | 26 kts | 152° |
| 2026-04-30 00:40 | 44.03908 | -103.05601 | 3163 ft | 26 kts | 152° |
| 2026-04-30 00:40 | 44.03743 | -103.05479 | 3159 ft | 27 kts | 152° |
| 2026-04-30 00:40 | 44.03578 | -103.05356 | 3155 ft | 26 kts | 151° |
| 2026-04-30 00:40 | 44.03421 | -103.05240 | 3152 ft | 25 kts | 153° |
| 2026-04-30 00:41 | 44.03251 | -103.05104 | 3147 ft | 11 kts | 124° |
| 2026-04-30 00:41 | 44.03249 | -103.05054 | 3147 ft | 0 kts | 70° |
| 2026-04-30 00:41 | 44.03250 | -103.05050 | 3147 ft | 0 kts | 67° |
| 2026-04-30 00:42 | 44.03258 | -103.05027 | 3146 ft | 9 kts | 64° |
| 2026-04-30 00:42 | 44.03295 | -103.04960 | 3145 ft | 7 kts | 6° |
| 2026-04-30 00:43 | 44.03429 | -103.05055 | 3148 ft | 58 kts | 332° |
| 2026-04-30 00:43 | 44.03994 | -103.05472 | 3228 ft | 114 kts | 332° |
| 2026-04-30 00:43 | 44.04753 | -103.06052 | 3922 ft | 140 kts | 330° |
| 2026-04-30 00:43 | 44.05676 | -103.06813 | 4993 ft | 162 kts | 329° |
| 2026-04-30 00:44 | 44.06605 | -103.07640 | 6278 ft | 168 kts | 329° |
| 2026-04-30 00:44 | 44.07688 | -103.08511 | 7144 ft | 192 kts | 331° |
| 2026-04-30 00:44 | 44.09003 | -103.09202 | 7910 ft | 218 kts | 353° |
| 2026-04-30 00:44 | 44.10578 | -103.08731 | 8526 ft | 252 kts | 22° |
| 2026-04-30 00:45 | 44.11954 | -103.07014 | 9073 ft | 280 kts | 50° |
| 2026-04-30 00:45 | 44.12721 | -103.03485 | 9769 ft | 303 kts | 86° |
| 2026-04-30 00:45 | 44.12510 | -103.01509 | 10117 ft | 311 kts | 103° |
| 2026-04-30 00:45 | 44.11690 | -102.98699 | 11296 ft | 314 kts | 112° |
| 2026-04-30 00:46 | 44.10754 | -102.95953 | 12485 ft | 322 kts | 115° |
| 2026-04-30 00:46 | 44.09724 | -102.93155 | 13692 ft | 329 kts | 116° |
| 2026-04-30 00:46 | 44.08687 | -102.90292 | 14766 ft | 334 kts | 115° |
| 2026-04-30 00:46 | 44.07657 | -102.87368 | 15824 ft | 339 kts | 115° |
| 2026-04-30 00:47 | 44.06611 | -102.84404 | 16850 ft | 344 kts | 115° |
| 2026-04-30 00:47 | 44.05539 | -102.81402 | 17847 ft | 349 kts | 116° |
| 2026-04-30 00:47 | 44.04450 | -102.78356 | 18772 ft | 354 kts | 116° |
| 2026-04-30 00:47 | 44.03348 | -102.75269 | 19572 ft | 360 kts | 116° |
| 2026-04-30 00:48 | 44.02243 | -102.72175 | 20345 ft | 365 kts | 116° |
| 2026-04-30 00:48 | 44.01106 | -102.68996 | 21108 ft | 370 kts | 116° |
| 2026-04-30 00:48 | 43.99951 | -102.65774 | 21851 ft | 375 kts | 116° |
| 2026-04-30 00:48 | 43.98779 | -102.62508 | 22567 ft | 380 kts | 116° |
| 2026-04-30 00:49 | 43.97591 | -102.59197 | 23326 ft | 385 kts | 117° |
| 2026-04-30 00:49 | 43.96386 | -102.55845 | 24001 ft | 391 kts | 117° |
| 2026-04-30 00:49 | 43.95165 | -102.52456 | 24597 ft | 395 kts | 117° |
| 2026-04-30 00:49 | 43.93928 | -102.49021 | 25193 ft | 400 kts | 117° |
| 2026-04-30 00:50 | 43.92692 | -102.45598 | 25750 ft | 405 kts | 117° |
| 2026-04-30 00:50 | 43.91425 | -102.42090 | 26302 ft | 409 kts | 117° |
| 2026-04-30 00:50 | 43.90142 | -102.38544 | 26849 ft | 414 kts | 118° |
| 2026-04-30 00:50 | 43.88844 | -102.34963 | 27374 ft | 418 kts | 118° |
| 2026-04-30 00:51 | 43.87532 | -102.31345 | 27898 ft | 422 kts | 118° |
| 2026-04-30 00:51 | 43.86207 | -102.27696 | 28400 ft | 426 kts | 118° |
| 2026-04-30 00:51 | 43.84866 | -102.24011 | 28885 ft | 430 kts | 118° |
| 2026-04-30 00:51 | 43.83512 | -102.20290 | 29357 ft | 434 kts | 118° |
| 2026-04-30 00:52 | 43.82164 | -102.16593 | 29815 ft | 438 kts | 118° |
| 2026-04-30 00:52 | 43.80784 | -102.12814 | 30254 ft | 442 kts | 118° |
| 2026-04-30 00:52 | 43.79390 | -102.09003 | 30628 ft | 445 kts | 118° |
| 2026-04-30 00:52 | 43.77987 | -102.05171 | 31004 ft | 448 kts | 119° |
| 2026-04-30 00:53 | 43.76573 | -102.01316 | 31368 ft | 451 kts | 119° |
| 2026-04-30 00:53 | 43.75150 | -101.97437 | 31736 ft | 454 kts | 119° |
| 2026-04-30 00:53 | 43.73715 | -101.93536 | 32080 ft | 457 kts | 119° |